Time;durP1;ratioP1;P1;durP2;ratioP2;P2;SDS_P1;SDS_P2;PMS_P1;PMS_P2;Temp;Humidity;BMP_temperature;BMP_pressure;BME280_temperature;BME280_humidity;BME280_pressure;Samples;Min_cycle;Max_cycle;Signal;HPM_P1;HPM_P2
2022/08/23 03:00:57;;;;;;;2.53;1.80;;;26.90;39.60;;;;;;5633002;23;45784;-65
2022/08/23 03:03:23;;;;;;;2.83;1.90;;;26.80;39.70;;;;;;4853303;29;45592;-65
2022/08/23 03:05:49;;;;;;;4.45;2.38;;;26.80;39.60;;;;;;4841327;29;45505;-65
2022/08/23 03:08:14;;;;;;;3.85;2.28;;;26.80;39.60;;;;;;4876622;29;45234;-64
2022/08/23 03:10:44;;;;;;;3.30;2.00;;;26.80;39.60;;;;;;4859880;29;45184;-64
2022/08/23 03:13:10;;;;;;;5.45;2.28;;;26.80;39.60;;;;;;4876683;29;45489;-64
2022/08/23 03:15:36;;;;;;;3.67;2.20;;;26.80;39.70;;;;;;4857826;29;46456;-64
2022/08/23 03:18:02;;;;;;;4.70;2.45;;;26.80;39.60;;;;;;4860740;29;45637;-65
2022/08/23 03:20:28;;;;;;;6.00;2.85;;;26.80;39.70;;;;;;4875734;29;45481;-65
2022/08/23 03:22:53;;;;;;;4.30;2.40;;;26.80;39.70;;;;;;4880042;29;46084;-65
2022/08/23 03:25:19;;;;;;;3.60;2.10;;;26.80;39.70;;;;;;4863026;29;46182;-65
2022/08/23 03:27:44;;;;;;;5.07;2.50;;;26.80;39.70;;;;;;4879648;29;45356;-65
2022/08/23 03:30:10;;;;;;;3.23;2.20;;;26.70;39.60;;;;;;4877392;29;45273;-66
2022/08/23 03:32:36;;;;;;;4.25;2.33;;;26.80;39.70;;;;;;4876527;29;45599;-66
2022/08/23 03:35:01;;;;;;;3.90;2.27;;;26.70;39.70;;;;;;4877403;29;45527;-65
2022/08/23 03:37:27;;;;;;;3.60;2.30;;;26.70;39.70;;;;;;4870094;29;45265;-66
2022/08/23 03:39:53;;;;;;;3.80;2.40;;;26.70;39.60;;;;;;4876534;29;45360;-65
2022/08/23 03:42:18;;;;;;;3.43;2.07;;;26.70;39.60;;;;;;4871380;29;44860;-66
2022/08/23 03:44:44;;;;;;;4.53;2.30;;;26.70;39.70;;;;;;4877613;29;46073;-66
2022/08/23 03:47:10;;;;;;;3.37;2.07;;;26.70;39.60;;;;;;4866410;29;45490;-65
2022/08/23 03:49:36;;;;;;;3.57;2.20;;;26.70;39.60;;;;;;4870471;29;45702;-65
2022/08/23 03:52:03;;;;;;;3.70;2.17;;;26.70;39.60;;;;;;4870990;29;45485;-65
2022/08/23 03:54:28;;;;;;;4.70;2.03;;;26.70;39.60;;;;;;4871648;29;46216;-65
2022/08/23 03:57:02;;;;;;;2.97;2.00;;;26.70;39.60;;;;;;4873262;29;45506;-65
2022/08/23 03:59:29;;;;;;;3.03;1.83;;;26.70;39.60;;;;;;4857119;29;45313;-66
2022/08/23 04:01:54;;;;;;;3.35;1.95;;;26.60;39.50;;;;;;4868039;29;46134;-66
2022/08/23 04:04:20;;;;;;;4.00;1.80;;;26.60;39.50;;;;;;4853769;29;45657;-65
2022/08/23 04:06:45;;;;;;;3.20;2.20;;;26.60;39.50;;;;;;4873983;29;44976;-65
2022/08/23 04:09:12;;;;;;;4.35;2.00;;;26.60;39.50;;;;;;4869826;29;45470;-65
2022/08/23 04:11:38;;;;;;;2.88;1.75;;;26.60;39.50;;;;;;4871438;29;45937;-66
2022/08/23 04:14:05;;;;;;;3.10;1.80;;;26.60;39.50;;;;;;4856454;29;46278;-66
2022/08/23 04:16:36;;;;;;;4.20;2.20;;;26.60;39.50;;;;;;4871216;29;45021;-66
2022/08/23 04:19:05;;;;;;;2.47;1.73;;;26.60;39.50;;;;;;4856707;29;45052;-65
2022/08/23 04:21:31;;;;;;;3.20;1.88;;;26.60;39.50;;;;;;4872755;29;45235;-65
2022/08/23 04:23:56;;;;;;;3.10;1.80;;;26.60;39.50;;;;;;4870560;29;45897;-66
2022/08/23 04:26:22;;;;;;;2.90;1.95;;;26.60;39.50;;;;;;4872546;29;45331;-65
2022/08/23 04:28:48;;;;;;;2.50;1.73;;;26.50;39.50;;;;;;4872736;29;45549;-66
2022/08/23 04:31:13;;;;;;;4.25;1.83;;;26.60;39.50;;;;;;4868483;29;45438;-65
2022/08/23 04:33:39;;;;;;;2.28;1.70;;;26.50;39.50;;;;;;4856780;29;46334;-64
2022/08/23 04:36:05;;;;;;;3.78;1.77;;;26.50;39.50;;;;;;4873661;29;45262;-66
2022/08/23 04:38:31;;;;;;;2.92;1.90;;;26.50;39.50;;;;;;4875354;29;45503;-66
2022/08/23 04:43:42;;;;;;;3.30;1.95;;;26.50;39.60;;;;;;4858670;29;46105;-66
2022/08/23 04:46:09;;;;;;;3.15;1.98;;;26.50;39.60;;;;;;4877454;29;45717;-66
2022/08/23 04:48:34;;;;;;;4.05;2.08;;;26.50;39.60;;;;;;4878854;29;45266;-65
2022/08/23 04:51:00;;;;;;;2.28;1.90;;;26.50;39.60;;;;;;4871568;29;45107;-67
2022/08/23 04:53:28;;;;;;;3.00;2.00;;;26.50;39.60;;;;;;4875285;29;45288;-64
2022/08/23 04:55:53;;;;;;;3.08;2.10;;;26.50;39.70;;;;;;4876750;29;45450;-65
2022/08/23 04:58:19;;;;;;;3.15;1.88;;;26.50;39.70;;;;;;4876995;29;46067;-65
2022/08/23 05:00:48;;;;;;;4.32;2.03;;;26.50;39.70;;;;;;4870181;29;45397;-65
2022/08/23 05:03:14;;;;;;;4.40;2.00;;;26.50;39.80;;;;;;4875600;29;45548;-65
2022/08/23 05:05:40;;;;;;;3.30;2.20;;;26.50;39.80;;;;;;4874964;29;44979;-65
2022/08/23 05:08:06;;;;;;;3.35;1.90;;;26.50;39.80;;;;;;4873059;29;45457;-65
2022/08/23 05:10:31;;;;;;;2.40;1.80;;;26.40;39.70;;;;;;4859379;29;44887;-64
2022/08/23 05:12:57;;;;;;;4.35;2.00;;;26.40;39.80;;;;;;4872427;29;46326;-67
2022/08/23 05:15:22;;;;;;;3.65;1.80;;;26.40;39.80;;;;;;4889060;29;45064;-64
2022/08/23 05:17:48;;;;;;;3.33;1.80;;;26.40;39.80;;;;;;4873036;29;44800;-65
2022/08/23 05:20:14;;;;;;;4.88;1.83;;;26.40;39.90;;;;;;4873012;29;45820;-64
2022/08/23 05:22:40;;;;;;;2.97;2.03;;;26.40;39.90;;;;;;4871330;29;45125;-64
2022/08/23 05:25:05;;;;;;;3.08;1.73;;;26.40;39.90;;;;;;4875552;29;44963;-65
2022/08/23 05:27:31;;;;;;;2.65;1.80;;;26.40;39.90;;;;;;4871558;29;45314;-65
2022/08/23 05:29:57;;;;;;;3.60;1.80;;;26.80;39.60;;;;;;4873585;29;45254;-64
2022/08/23 05:32:22;;;;;;;3.17;1.92;;;26.90;39.30;;;;;;4873258;29;46189;-65
2022/08/23 05:34:48;;;;;;;4.05;2.30;;;26.90;39.30;;;;;;4876023;29;45480;-67
2022/08/23 05:37:14;;;;;;;3.67;1.75;;;26.90;39.40;;;;;;4878173;29;44797;-65
2022/08/23 05:39:40;;;;;;;2.70;2.00;;;26.80;39.50;;;;;;4880550;29;45464;-64
2022/08/23 05:42:06;;;;;;;3.57;1.90;;;26.80;39.70;;;;;;4878246;29;45984;-66
2022/08/23 05:44:32;;;;;;;2.72;1.83;;;26.80;39.80;;;;;;4862816;29;45049;-65
2022/08/23 05:46:58;;;;;;;3.43;1.97;;;26.70;40.00;;;;;;4874285;29;45364;-66
2022/08/23 05:49:23;;;;;;;3.20;2.00;;;26.70;40.20;;;;;;4875251;29;45351;-65
2022/08/23 05:51:49;;;;;;;4.93;2.27;;;26.70;40.10;;;;;;4878879;29;46231;-66
2022/08/23 05:54:15;;;;;;;3.10;1.87;;;26.70;40.20;;;;;;4879484;29;45279;-64
2022/08/23 05:56:41;;;;;;;3.80;1.70;;;26.70;40.30;;;;;;4859731;29;45469;-64
2022/08/23 05:59:10;;;;;;;3.83;1.97;;;26.70;40.20;;;;;;4876427;29;45546;-65
2022/08/23 06:01:36;;;;;;;4.88;1.90;;;26.70;40.20;;;;;;4876618;29;45073;-64
2022/08/23 06:04:03;;;;;;;3.33;1.83;;;26.80;40.10;;;;;;4875933;29;45548;-64
2022/08/23 06:06:28;;;;;;;2.97;1.90;;;26.80;40.70;;;;;;4877806;29;46171;-64
2022/08/23 06:08:54;;;;;;;4.35;2.13;;;26.90;40.20;;;;;;4862783;29;44970;-64
2022/08/23 06:11:24;;;;;;;15.32;2.95;;;26.90;40.30;;;;;;4877548;29;48064;-64
2022/08/23 06:13:52;;;;;;;46.70;5.33;;;26.90;40.30;;;;;;4862705;29;45396;-64
2022/08/23 06:16:20;;;;;;;35.10;5.30;;;27.00;40.30;;;;;;4846355;29;45437;-65
2022/08/23 06:18:46;;;;;;;53.35;7.00;;;27.00;40.30;;;;;;4861664;29;45269;-64
2022/08/23 06:21:12;;;;;;;41.42;5.85;;;27.00;40.30;;;;;;4874525;29;46470;-64
2022/08/23 06:23:38;;;;;;;44.50;5.20;;;27.10;40.40;;;;;;4860629;29;45511;-65
2022/08/23 06:26:14;;;;;;;27.37;4.77;;;27.10;40.50;;;;;;4877894;29;45490;-65
2022/08/23 06:28:41;;;;;;;18.35;4.15;;;27.10;40.60;;;;;;4877611;29;44832;-64
2022/08/23 06:31:08;;;;;;;20.20;4.57;;;27.20;40.60;;;;;;4858470;29;46357;-66
2022/08/23 06:33:33;;;;;;;22.60;4.00;;;27.20;40.70;;;;;;4876846;29;45414;-63
2022/08/23 06:36:04;;;;;;;18.53;3.47;;;27.20;40.60;;;;;;4873258;29;45614;-63
2022/08/23 06:38:30;;;;;;;16.20;3.30;;;27.20;40.70;;;;;;4878279;29;45143;-64
2022/08/23 06:41:01;;;;;;;34.58;5.82;;;27.20;40.90;;;;;;4875964;29;45866;-64
2022/08/23 06:43:26;;;;;;;255.25;29.27;;;27.20;41.10;;;;;;4874101;29;45600;-64
2022/08/23 06:45:52;;;;;;;179.88;18.77;;;27.20;41.10;;;;;;4858940;29;45736;-64
2022/08/23 06:48:17;;;;;;;119.93;13.80;;;27.10;40.80;;;;;;4878952;29;44962;-64
2022/08/23 06:50:43;;;;;;;97.53;12.17;;;27.00;40.70;;;;;;4871742;29;46124;-64
2022/08/23 06:53:09;;;;;;;71.17;8.73;;;26.90;40.90;;;;;;4878556;29;45561;-64
2022/08/23 06:55:35;;;;;;;85.10;10.02;;;26.80;41.10;;;;;;4876428;29;45520;-64
2022/08/23 06:58:02;;;;;;;92.78;9.25;;;26.80;41.10;;;;;;4879245;29;45221;-64
2022/08/23 07:00:27;;;;;;;92.25;10.63;;;26.70;41.20;;;;;;4873161;29;46343;-64
2022/08/23 07:02:53;;;;;;;94.22;12.38;;;26.70;41.10;;;;;;4853577;29;45474;-64
2022/08/23 07:05:18;;;;;;;176.25;21.42;;;26.70;41.10;;;;;;4861250;29;45239;-64
2022/08/23 07:07:44;;;;;;;193.18;24.85;;;26.70;41.40;;;;;;4860955;29;45304;-64
2022/08/23 07:10:10;;;;;;;213.17;25.67;;;26.70;41.50;;;;;;4862125;29;47139;-64
2022/08/23 07:12:40;;;;;;;184.27;22.97;;;26.70;41.70;;;;;;4858622;29;45357;-64
2022/08/23 07:15:07;;;;;;;141.02;17.45;;;26.80;41.80;;;;;;4839056;29;44969;-64
2022/08/23 07:17:33;;;;;;;147.60;18.27;;;26.70;41.70;;;;;;4855687;29;45375;-64
2022/08/23 07:19:58;;;;;;;140.63;17.58;;;26.70;41.90;;;;;;4848939;29;46176;-65
2022/08/23 07:22:24;;;;;;;104.65;14.65;;;26.70;41.90;;;;;;4863331;29;45252;-65
2022/08/23 07:24:49;;;;;;;101.03;13.38;;;26.70;42.00;;;;;;4844691;29;45772;-64
2022/08/23 07:27:15;;;;;;;106.37;13.87;;;26.70;42.00;;;;;;4859893;29;45254;-65
2022/08/23 07:29:41;;;;;;;105.43;12.47;;;26.70;42.10;;;;;;4860194;29;46438;-65
2022/08/23 07:32:06;;;;;;;120.87;15.37;;;26.70;42.10;;;;;;4832244;29;45228;-65
2022/08/23 07:34:32;;;;;;;95.13;13.47;;;26.70;42.00;;;;;;4858409;29;45911;-64
2022/08/23 07:36:58;;;;;;;104.57;12.83;;;26.80;42.10;;;;;;4861975;29;45566;-64
2022/08/23 07:39:25;;;;;;;114.80;15.20;;;26.80;42.10;;;;;;4843000;29;46052;-64
2022/08/23 07:41:51;;;;;;;91.55;12.40;;;26.80;42.10;;;;;;4839950;29;45540;-65
2022/08/23 07:44:17;;;;;;;89.22;13.02;;;26.80;42.10;;;;;;4845798;29;45226;-64
2022/08/23 07:46:43;;;;;;;75.97;12.03;;;26.80;42.10;;;;;;4833237;29;45061;-64
2022/08/23 07:49:09;;;;;;;68.05;10.18;;;26.80;42.10;;;;;;4838964;29;46034;-65
2022/08/23 07:51:34;;;;;;;65.90;9.93;;;26.80;42.20;;;;;;4841435;29;45680;-64
2022/08/23 07:54:01;;;;;;;44.88;8.48;;;26.80;42.30;;;;;;4853001;29;46046;-65
2022/08/23 07:56:27;;;;;;;50.07;9.10;;;26.80;42.40;;;;;;4850052;29;45663;-65
2022/08/23 07:58:53;;;;;;;40.00;7.43;;;26.90;42.50;;;;;;4843117;29;45245;-64
2022/08/23 08:01:24;;;;;;;42.85;7.63;;;26.90;42.40;;;;;;4833268;29;45309;-66
2022/08/23 08:03:51;;;;;;;34.55;6.28;;;26.80;42.40;;;;;;4870881;29;45222;-64
2022/08/23 08:06:23;;;;;;;45.35;7.88;;;26.90;42.40;;;;;;4876719;29;45890;-63
2022/08/23 08:08:49;;;;;;;35.70;6.25;;;26.90;42.30;;;;;;4876896;29;47619;-65
2022/08/23 08:11:15;;;;;;;40.17;5.90;;;27.00;42.30;;;;;;4870787;29;45352;-65
2022/08/23 08:13:42;;;;;;;25.55;5.25;;;27.00;42.20;;;;;;4875003;29;45770;-65
2022/08/23 08:16:08;;;;;;;26.07;4.83;;;27.00;42.20;;;;;;4876586;29;45358;-65
2022/08/23 08:18:36;;;;;;;30.40;4.95;;;27.00;41.90;;;;;;4877326;29;46161;-65
2022/08/23 08:21:03;;;;;;;17.48;4.28;;;27.00;41.80;;;;;;4877295;29;45566;-65
2022/08/23 08:23:28;;;;;;;20.02;4.50;;;27.00;41.80;;;;;;4875913;29;45195;-65
2022/08/23 08:26:05;;;;;;;12.30;3.10;;;27.00;41.50;;;;;;4874067;29;44676;-65
2022/08/23 08:28:31;;;;;;;28.55;4.68;;;27.00;41.30;;;;;;4872799;29;47285;-65
2022/08/23 08:30:57;;;;;;;17.42;3.97;;;27.10;41.30;;;;;;4873302;29;45369;-65
2022/08/23 08:33:24;;;;;;;17.33;3.78;;;27.10;41.20;;;;;;4876697;29;44687;-64
2022/08/23 08:35:50;;;;;;;11.60;2.60;;;27.20;41.20;;;;;;4860009;29;44928;-65
2022/08/23 08:38:15;;;;;;;13.23;2.93;;;27.10;41.00;;;;;;4877582;29;44814;-64
2022/08/23 08:40:41;;;;;;;9.47;2.37;;;27.10;40.80;;;;;;4872042;29;45001;-65
2022/08/23 08:43:25;;;;;;;14.25;2.75;;;27.10;40.70;;;;;;4859765;29;45028;-66
2022/08/23 08:46:05;;;;;;;19.67;2.75;;;27.10;40.60;;;;;;4873229;29;45480;-65
2022/08/23 08:48:36;;;;;;;15.32;2.35;;;27.10;40.60;;;;;;4872583;29;45251;-65
2022/08/23 08:51:04;;;;;;;15.35;2.38;;;27.10;40.40;;;;;;4872477;29;45597;-65
2022/08/23 08:53:36;;;;;;;26.67;2.65;;;27.10;40.50;;;;;;4875098;29;45273;-65
2022/08/23 08:56:22;;;;;;;20.38;2.50;;;27.20;40.80;;;;;;4856891;29;45185;-64
2022/08/23 08:58:49;;;;;;;20.55;2.65;;;27.20;40.90;;;;;;4870525;29;46191;-64
2022/08/23 09:01:16;;;;;;;21.07;3.07;;;27.20;41.00;;;;;;4844940;29;45523;-65
2022/08/23 09:03:42;;;;;;;11.67;2.20;;;27.30;41.10;;;;;;4872419;29;45297;-65
2022/08/23 09:06:20;;;;;;;14.03;2.23;;;27.30;40.70;;;;;;4875807;29;45421;-65
2022/08/23 09:08:45;;;;;;;9.63;1.73;;;27.30;40.40;;;;;;4879768;29;45485;-65
2022/08/23 09:11:24;;;;;;;6.00;1.70;;;27.30;40.20;;;;;;4877387;29;45371;-65
2022/08/23 09:14:18;;;;;;;11.68;2.30;;;27.30;40.10;;;;;;4893983;29;45017;-65
2022/08/23 09:17:01;;;;;;;10.00;2.35;;;27.30;40.10;;;;;;4888414;29;45461;-64
2022/08/23 09:19:36;;;;;;;9.10;1.80;;;27.40;40.00;;;;;;4862933;29;45317;-65
2022/08/23 09:22:12;;;;;;;10.07;2.05;;;27.40;40.00;;;;;;4877758;29;44887;-65
2022/08/23 09:24:38;;;;;;;8.30;1.90;;;27.40;39.70;;;;;;4864557;29;45048;-65
2022/08/23 09:27:03;;;;;;;6.03;1.70;;;27.50;39.60;;;;;;4880565;29;45608;-65
2022/08/23 09:29:31;;;;;;;3.80;1.40;;;27.50;39.40;;;;;;4878350;29;45487;-66
2022/08/23 09:32:05;;;;;;;4.27;1.50;;;27.50;39.20;;;;;;4877183;29;45602;-65
2022/08/23 09:34:35;;;;;;;7.57;1.77;;;27.50;39.00;;;;;;4881182;29;45516;-65
2022/08/23 09:37:18;;;;;;;4.63;1.35;;;27.50;38.90;;;;;;4876077;29;45488;-65
2022/08/23 09:39:49;;;;;;;4.65;1.50;;;27.50;38.50;;;;;;4878666;29;45913;-65
2022/08/23 09:42:31;;;;;;;3.63;1.25;;;27.50;38.10;;;;;;4875587;29;45758;-65
2022/08/23 09:44:57;;;;;;;3.80;1.48;;;27.60;37.80;;;;;;4879654;29;45269;-65
2022/08/23 09:47:33;;;;;;;3.07;1.03;;;27.60;37.30;;;;;;4879444;29;45257;-65
2022/08/23 09:50:25;;;;;;;3.65;1.20;;;27.50;37.30;;;;;;4877481;29;46230;-65
2022/08/23 09:52:55;;;;;;;3.88;1.10;;;27.60;37.10;;;;;;4873467;29;45642;-65
2022/08/23 09:55:32;;;;;;;3.53;1.10;;;27.60;37.00;;;;;;4878339;29;45482;-65
2022/08/23 09:57:59;;;;;;;3.05;1.70;;;27.60;36.80;;;;;;4859495;29;45269;-65
2022/08/23 10:00:33;;;;;;;4.88;1.70;;;27.60;36.40;;;;;;4873160;29;47130;-65
2022/08/23 10:03:21;;;;;;;2.60;1.30;;;27.60;35.90;;;;;;4851643;29;45531;-65
2022/08/23 10:05:55;;;;;;;2.78;1.27;;;27.60;35.70;;;;;;4843890;29;45449;-65
2022/08/23 10:08:48;;;;;;;1.70;1.00;;;27.70;35.90;;;;;;4849243;29;45010;-65
2022/08/23 10:11:29;;;;;;;2.60;1.20;;;27.70;35.90;;;;;;4840571;29;45448;-66
2022/08/23 10:13:54;;;;;;;2.47;1.20;;;27.70;35.90;;;;;;4841972;29;44821;-65
2022/08/23 10:16:32;;;;;;;1.65;1.05;;;27.70;35.90;;;;;;4832512;29;45545;-65
2022/08/23 10:19:01;;;;;;;3.25;1.38;;;27.70;35.90;;;;;;4850728;29;45290;-65
2022/08/23 10:21:47;;;;;;;1.95;1.33;;;27.70;35.90;;;;;;4873002;29;46218;-66
2022/08/23 10:24:39;;;;;;;2.63;1.20;;;27.70;35.70;;;;;;4831594;29;45596;-67
2022/08/23 10:30:52;;;;;;;2.87;1.07;;;27.70;35.60;;;;;;4842957;29;45507;-66
2022/08/23 10:33:30;;;;;;;2.15;1.10;;;27.80;35.50;;;;;;4811162;29;46906;-65
2022/08/23 10:36:12;;;;;;;4.47;1.15;;;27.70;35.30;;;;;;4842021;29;45200;-66
2022/08/23 10:38:39;;;;;;;2.20;1.20;;;27.80;35.10;;;;;;4853207;29;45571;-66
2022/08/23 10:41:30;;;;;;;3.78;1.67;;;27.80;34.90;;;;;;4830067;29;44991;-66
2022/08/23 10:43:59;;;;;;;3.25;1.90;;;27.80;34.70;;;;;;4840243;29;46116;-66
2022/08/23 10:46:24;;;;;;;1.77;1.40;;;27.90;34.50;;;;;;4861011;29;44870;-66
2022/08/23 10:48:55;;;;;;;2.10;1.30;;;27.90;34.20;;;;;;4829321;29;45315;-65
2022/08/23 10:51:42;;;;;;;2.45;1.60;;;27.90;34.00;;;;;;4813707;29;45241;-67
2022/08/23 10:54:11;;;;;;;1.65;1.20;;;27.90;34.00;;;;;;4841123;29;45433;-66
2022/08/23 10:56:37;;;;;;;4.00;1.30;;;27.90;34.00;;;;;;4838202;29;45331;-66
2022/08/23 10:59:14;;;;;;;2.25;1.30;;;27.90;34.00;;;;;;4831256;29;45170;-65
2022/08/23 11:01:49;;;;;;;2.83;1.40;;;28.00;34.00;;;;;;4830930;29;45220;-66
2022/08/23 11:04:30;;;;;;;3.97;1.67;;;28.00;33.90;;;;;;4877788;29;46503;-64
2022/08/23 11:06:57;;;;;;;1.60;1.25;;;28.00;33.90;;;;;;4877576;29;45478;-65
2022/08/23 11:09:22;;;;;;;2.23;1.30;;;28.10;34.00;;;;;;4881536;29;44694;-65
2022/08/23 11:12:12;;;;;;;2.23;1.33;;;28.10;34.10;;;;;;4875994;29;45134;-64
2022/08/23 11:14:41;;;;;;;2.43;1.13;;;28.10;34.10;;;;;;4870919;29;45870;-64
2022/08/23 11:17:11;;;;;;;2.55;1.13;;;28.10;34.20;;;;;;4877496;29;45286;-65
2022/08/23 11:19:51;;;;;;;2.33;1.13;;;28.10;34.20;;;;;;4865977;29;45317;-64
2022/08/23 11:22:55;;;;;;;1.90;0.98;;;28.20;34.10;;;;;;4878399;29;45388;-64
2022/08/23 11:25:21;;;;;;;1.65;1.00;;;28.20;34.20;;;;;;4858014;29;46172;-64
2022/08/23 11:27:46;;;;;;;1.88;1.10;;;28.20;34.20;;;;;;4878009;29;45230;-64
2022/08/23 11:30:33;;;;;;;2.28;1.23;;;28.20;34.20;;;;;;4881889;29;45255;-64
2022/08/23 11:33:09;;;;;;;2.38;1.00;;;28.20;34.20;;;;;;4876958;29;45210;-65
2022/08/23 11:35:43;;;;;;;1.58;0.90;;;28.30;34.10;;;;;;4878695;29;45955;-64
2022/08/23 11:38:09;;;;;;;1.63;0.87;;;28.30;34.10;;;;;;4881221;29;45327;-65
2022/08/23 11:40:36;;;;;;;2.93;1.20;;;28.30;34.20;;;;;;4881287;29;45258;-64
2022/08/23 11:43:19;;;;;;;1.47;1.13;;;28.40;34.20;;;;;;4879298;29;45211;-64
2022/08/23 11:45:45;;;;;;;1.52;1.08;;;28.40;34.20;;;;;;4875497;28;45308;-64
2022/08/23 11:48:28;;;;;;;2.30;0.90;;;28.40;34.10;;;;;;4873474;29;45202;-65
2022/08/23 11:51:04;;;;;;;1.90;0.98;;;28.40;34.20;;;;;;4881748;29;45597;-65
2022/08/23 11:53:38;;;;;;;3.03;1.23;;;28.40;34.20;;;;;;4873839;29;44792;-65
2022/08/23 11:56:13;;;;;;;4.00;1.17;;;28.50;34.00;;;;;;4878486;29;46223;-65
2022/08/23 11:59:08;;;;;;;2.40;1.00;;;28.50;33.90;;;;;;4877724;29;45300;-65
2022/08/23 12:01:35;;;;;;;3.83;1.10;;;28.50;33.80;;;;;;4867275;29;45285;-65
2022/08/23 12:04:09;;;;;;;5.75;1.10;;;28.50;33.70;;;;;;4864124;29;45449;-65
2022/08/23 12:06:36;;;;;;;2.27;1.00;;;28.50;33.30;;;;;;4879740;29;45341;-65
2022/08/23 12:09:10;;;;;;;2.22;1.17;;;28.50;33.20;;;;;;4874714;29;66611;-65
2022/08/23 12:11:54;;;;;;;2.67;1.05;;;28.60;33.30;;;;;;4879019;29;46615;-65
2022/08/23 12:14:49;;;;;;;2.40;1.00;;;28.60;33.40;;;;;;4881673;29;45821;-65
2022/08/23 12:17:14;;;;;;;2.60;1.08;;;28.60;33.40;;;;;;4879567;29;45389;-65
2022/08/23 12:20:09;;;;;;;3.05;1.00;;;28.60;33.50;;;;;;4882987;29;45019;-65
2022/08/23 12:23:06;;;;;;;2.70;1.08;;;28.60;33.40;;;;;;4873174;29;45803;-65
2022/08/23 12:25:32;;;;;;;4.33;1.10;;;28.60;33.30;;;;;;4877507;29;45755;-65
2022/08/23 12:28:06;;;;;;;1.55;1.00;;;28.60;33.30;;;;;;4880889;29;46284;-66
2022/08/23 12:30:52;;;;;;;2.13;1.10;;;28.70;33.40;;;;;;4878978;29;44827;-65
2022/08/23 12:33:26;;;;;;;2.42;0.90;;;28.70;33.30;;;;;;4881570;29;45938;-65
2022/08/23 12:36:07;;;;;;;2.37;1.00;;;28.70;33.30;;;;;;4880363;29;45706;-65
2022/08/23 12:39:07;;;;;;;2.30;0.90;;;28.80;32.90;;;;;;4893506;29;45579;-65
2022/08/23 12:42:15;;;;;;;3.35;0.90;;;28.80;33.40;;;;;;4856218;29;44883;-65
2022/08/23 12:44:42;;;;;;;14.40;1.55;;;28.80;32.90;;;;;;4863110;29;45695;-65
2022/08/23 12:47:18;;;;;;;10.60;1.05;;;28.80;33.20;;;;;;4862182;29;44856;-65
2022/08/23 12:49:56;;;;;;;4.75;1.20;;;28.80;33.20;;;;;;4881067;29;45957;-65
2022/08/23 12:52:24;;;;;;;4.93;1.03;;;28.90;32.90;;;;;;4877921;29;45530;-66
2022/08/23 12:54:53;;;;;;;4.95;1.02;;;28.90;32.50;;;;;;4881443;29;45086;-65
2022/08/23 12:57:23;;;;;;;2.83;0.97;;;28.90;32.40;;;;;;4862702;29;45308;-66
2022/08/23 13:00:13;;;;;;;8.38;1.08;;;29.00;32.30;;;;;;4866455;29;46873;-65
2022/08/23 13:02:41;;;;;;;2.35;1.00;;;28.90;32.30;;;;;;4876451;29;45244;-65
2022/08/23 13:05:12;;;;;;;3.57;0.90;;;29.00;32.40;;;;;;4876672;29;45200;-66
2022/08/23 13:07:38;;;;;;;3.65;1.00;;;29.00;32.20;;;;;;4861687;29;45007;-65
2022/08/23 13:10:04;;;;;;;3.20;1.00;;;29.00;32.20;;;;;;4860679;29;46006;-66
2022/08/23 13:12:30;;;;;;;3.00;0.82;;;29.00;32.30;;;;;;4877869;29;45285;-65
2022/08/23 13:15:00;;;;;;;3.35;0.90;;;29.00;32.10;;;;;;4880886;29;45115;-65
2022/08/23 13:17:25;;;;;;;2.28;0.90;;;29.00;32.10;;;;;;4878773;29;45529;-65
2022/08/23 13:20:01;;;;;;;2.95;0.98;;;29.00;32.00;;;;;;4881251;29;45943;-66
2022/08/23 13:22:27;;;;;;;2.80;0.98;;;29.10;31.90;;;;;;4877960;29;45268;-65
2022/08/23 13:24:57;;;;;;;4.82;1.02;;;29.10;31.80;;;;;;4879979;29;45285;-65
2022/08/23 13:27:26;;;;;;;2.72;0.73;;;29.10;31.80;;;;;;4879635;29;45227;-65
2022/08/23 13:30:00;;;;;;;2.50;0.88;;;29.10;31.70;;;;;;4877436;29;46079;-65
2022/08/23 13:32:38;;;;;;;3.05;0.90;;;29.10;31.70;;;;;;4876621;29;45252;-66
2022/08/23 13:35:39;;;;;;;3.10;1.07;;;29.20;31.80;;;;;;4877956;29;45135;-66
2022/08/23 13:38:13;;;;;;;2.03;0.90;;;29.20;31.70;;;;;;4875774;29;45466;-65
2022/08/23 13:40:45;;;;;;;3.20;1.00;;;29.20;31.40;;;;;;4875433;29;45600;-65
2022/08/23 13:43:18;;;;;;;2.47;0.80;;;29.20;31.20;;;;;;4877444;29;45173;-64
2022/08/23 13:45:49;;;;;;;2.55;0.70;;;29.20;31.10;;;;;;4860744;29;45354;-66
2022/08/23 13:48:27;;;;;;;2.55;0.90;;;29.20;31.10;;;;;;4864714;29;45283;-65
2022/08/23 13:50:52;;;;;;;1.95;0.80;;;29.20;31.00;;;;;;4877036;29;45989;-65
2022/08/23 13:53:18;;;;;;;5.70;0.87;;;29.20;31.10;;;;;;4876723;29;45320;-64
2022/08/23 13:55:48;;;;;;;5.33;0.93;;;29.20;31.10;;;;;;4867410;29;45167;-65
2022/08/23 13:58:23;;;;;;;2.80;0.80;;;29.20;31.10;;;;;;4867734;29;45098;-64
2022/08/23 14:00:49;;;;;;;3.47;1.10;;;29.20;30.90;;;;;;4877205;29;46214;-64
2022/08/23 14:03:14;;;;;;;3.57;1.10;;;29.20;30.80;;;;;;4882116;29;45367;-64
2022/08/23 14:05:40;;;;;;;3.30;0.80;;;29.20;30.80;;;;;;4876444;29;45503;-64
2022/08/23 14:08:05;;;;;;;3.50;1.08;;;29.20;30.90;;;;;;4884552;29;45211;-64
2022/08/23 14:10:31;;;;;;;4.10;0.95;;;29.20;30.90;;;;;;4882217;29;45304;-65
2022/08/23 14:12:56;;;;;;;3.27;0.90;;;29.20;31.00;;;;;;4863669;29;45380;-65
2022/08/23 14:15:22;;;;;;;2.30;0.80;;;29.30;31.10;;;;;;4881828;29;45162;-64
2022/08/23 14:17:49;;;;;;;1.20;0.83;;;29.30;31.10;;;;;;4880341;29;44688;-65
2022/08/23 14:20:16;;;;;;;2.63;0.80;;;29.30;30.80;;;;;;4882382;29;45166;-64
2022/08/23 14:22:42;;;;;;;4.25;0.95;;;29.30;30.50;;;;;;4882187;29;44982;-64
2022/08/23 14:25:08;;;;;;;2.72;0.60;;;29.40;30.40;;;;;;4882647;29;45637;-64
2022/08/23 14:27:34;;;;;;;3.83;1.00;;;29.40;30.10;;;;;;4884173;29;45174;-64
2022/08/23 14:29:59;;;;;;;3.22;1.20;;;29.40;30.00;;;;;;4876901;29;46968;-64
2022/08/23 14:32:26;;;;;;;5.68;1.00;;;29.40;29.90;;;;;;4878626;29;45200;-64
2022/08/23 14:34:51;;;;;;;3.47;1.10;;;29.50;29.90;;;;;;4875921;29;45125;-64
2022/08/23 14:37:17;;;;;;;3.57;1.07;;;29.50;29.90;;;;;;4880374;29;45563;-65
2022/08/23 14:39:42;;;;;;;2.70;1.00;;;29.50;29.90;;;;;;4877610;29;47024;-65
2022/08/23 14:42:08;;;;;;;2.88;0.90;;;29.50;29.80;;;;;;4876954;29;45427;-65
2022/08/23 14:44:34;;;;;;;3.80;1.20;;;29.50;29.70;;;;;;4882761;29;44843;-65
2022/08/23 14:46:59;;;;;;;2.20;1.00;;;29.50;29.70;;;;;;4865204;29;45398;-65
2022/08/23 14:49:25;;;;;;;3.30;0.90;;;29.50;29.80;;;;;;4882820;29;45942;-65
2022/08/23 14:51:50;;;;;;;2.40;0.80;;;29.50;29.60;;;;;;4882190;29;45470;-65
2022/08/23 14:54:20;;;;;;;2.55;0.90;;;29.60;29.70;;;;;;4882012;29;45712;-65
2022/08/23 14:56:46;;;;;;;2.92;0.90;;;29.60;29.80;;;;;;4879473;29;45305;-65
2022/08/23 14:59:12;;;;;;;2.92;0.90;;;29.60;30.10;;;;;;4884335;29;45950;-65
2022/08/23 15:01:38;;;;;;;2.47;0.73;;;29.70;29.60;;;;;;4879921;29;44962;-64
2022/08/23 15:04:03;;;;;;;2.38;0.80;;;29.70;29.80;;;;;;4879633;29;45087;-66
2022/08/23 15:06:29;;;;;;;3.85;0.82;;;29.70;29.90;;;;;;4876296;29;45713;-65
2022/08/23 15:08:55;;;;;;;4.28;1.00;;;29.70;29.80;;;;;;4865289;29;45855;-65
2022/08/23 15:11:20;;;;;;;3.13;0.80;;;29.70;29.90;;;;;;4881609;29;45444;-65
2022/08/23 15:13:46;;;;;;;4.50;0.95;;;29.70;29.80;;;;;;4881403;29;45691;-65
2022/08/23 15:16:13;;;;;;;2.67;0.90;;;29.70;29.90;;;;;;4877976;29;45230;-65
2022/08/23 15:18:39;;;;;;;2.85;0.80;;;29.70;29.90;;;;;;4880035;29;47239;-66
2022/08/23 15:21:05;;;;;;;1.85;0.90;;;29.70;29.80;;;;;;4860589;29;45193;-65
2022/08/23 15:23:31;;;;;;;4.13;1.20;;;29.70;29.90;;;;;;4888538;29;45417;-66
2022/08/23 15:25:56;;;;;;;2.67;0.80;;;29.70;29.80;;;;;;4878264;29;45159;-66
2022/08/23 15:28:22;;;;;;;3.37;1.00;;;29.70;29.80;;;;;;4872105;29;46884;-66
2022/08/23 15:30:48;;;;;;;3.83;0.85;;;29.70;29.80;;;;;;4874377;29;45395;-65
2022/08/23 15:33:14;;;;;;;2.58;0.85;;;29.70;29.70;;;;;;4876577;29;44924;-65
2022/08/23 15:35:42;;;;;;;2.53;0.70;;;29.80;29.80;;;;;;4873099;29;45422;-66
2022/08/23 15:38:07;;;;;;;2.60;1.05;;;29.70;29.80;;;;;;4870746;29;46279;-66
2022/08/23 15:40:33;;;;;;;1.40;0.70;;;29.80;30.00;;;;;;4874318;29;45346;-66
2022/08/23 15:42:59;;;;;;;1.95;0.80;;;29.80;29.90;;;;;;4859983;29;44948;-67
2022/08/23 15:45:24;;;;;;;3.20;0.80;;;29.80;29.90;;;;;;4859096;29;45377;-65
2022/08/23 15:47:52;;;;;;;3.65;1.02;;;29.80;29.90;;;;;;4854220;29;46564;-66
2022/08/23 15:50:19;;;;;;;1.50;0.80;;;29.80;29.90;;;;;;4874363;29;45250;-66
2022/08/23 15:52:45;;;;;;;3.33;0.80;;;29.80;29.90;;;;;;4875501;29;45473;-65
2022/08/23 15:55:11;;;;;;;2.77;0.80;;;29.80;30.00;;;;;;4877791;29;45467;-66
2022/08/23 15:57:43;;;;;;;3.27;1.00;;;29.80;30.00;;;;;;4875526;29;45257;-66
2022/08/23 16:00:10;;;;;;;2.17;0.65;;;29.80;30.00;;;;;;4871098;29;45400;-66
2022/08/23 16:02:35;;;;;;;2.43;1.00;;;29.80;30.10;;;;;;4870324;29;45569;-66